createdAt,value
2023-02-17T00:01:31.614Z,100.00
2023-02-17T00:03:59.502Z,100.00
2023-02-17T00:06:29.476Z,100.00
2023-02-17T00:08:56.923Z,100.00
2023-02-17T00:11:24.817Z,100.00
2023-02-17T00:13:55.201Z,100.00
2023-02-17T00:16:26.004Z,100.00
2023-02-17T00:19:02.497Z,100.00
2023-02-17T00:21:32.086Z,100.00
2023-02-17T00:24:00.206Z,100.00
2023-02-17T00:26:27.942Z,100.00
2023-02-17T00:28:55.193Z,100.00
2023-02-17T00:31:24.155Z,100.00
2023-02-17T00:33:55.819Z,100.00
2023-02-17T00:36:25.247Z,100.00
2023-02-17T00:38:55.253Z,100.00
2023-02-17T00:41:23.610Z,100.00
2023-02-17T00:43:50.945Z,100.00
2023-02-17T00:46:18.673Z,100.00
2023-02-17T00:48:47.004Z,100.00
2023-02-17T00:51:16.626Z,100.00
2023-02-17T00:53:44.669Z,100.00
2023-02-17T00:56:12.960Z,100.00
2023-02-17T00:58:41.625Z,100.00
2023-02-17T01:01:10.635Z,100.00
2023-02-17T01:03:42.283Z,100.00
2023-02-17T01:06:15.498Z,100.00
2023-02-17T01:08:42.733Z,100.00
2023-02-17T01:11:18.071Z,100.00
2023-02-17T01:13:45.372Z,100.00
2023-02-17T01:16:25.307Z,100.00
2023-02-17T01:18:52.962Z,100.00
2023-02-17T01:21:26.318Z,100.00
2023-02-17T01:23:56.226Z,100.00
2023-02-17T01:26:26.491Z,100.00
2023-02-17T01:28:54.661Z,100.00
2023-02-17T01:31:23.105Z,100.00
2023-02-17T01:33:50.387Z,100.00
2023-02-17T01:36:19.467Z,100.00
2023-02-17T01:38:46.817Z,100.00
2023-02-17T01:41:15.838Z,100.00
2023-02-17T01:43:43.705Z,100.00
2023-02-17T01:46:11.238Z,100.00
2023-02-17T01:48:39.170Z,100.00
2023-02-17T01:51:15.394Z,100.00
2023-02-17T01:53:55.407Z,100.00
2023-02-17T01:56:24.972Z,100.00
2023-02-17T01:58:59.993Z,100.00
2023-02-17T02:01:30.144Z,100.00
2023-02-17T02:04:00.616Z,100.00
2023-02-17T02:06:29.877Z,100.00
2023-02-17T02:09:15.596Z,100.00
2023-02-17T02:11:43.147Z,100.00
2023-02-17T02:14:11.475Z,100.00
2023-02-17T02:17:03.649Z,100.00
2023-02-17T02:19:49.626Z,100.00
2023-02-17T02:22:54.739Z,100.00
2023-02-17T02:25:43.268Z,100.00
2023-02-17T02:28:38.794Z,100.00
2023-02-17T02:31:27.505Z,100.00
2023-02-17T02:34:06.743Z,100.00
2023-02-17T02:36:58.862Z,100.00
2023-02-17T02:39:34.502Z,100.00
2023-02-17T02:42:09.243Z,100.00
2023-02-17T02:44:37.130Z,100.00
2023-02-17T02:47:42.354Z,100.00
2023-02-17T02:50:14.668Z,100.00
2023-02-17T02:53:17.348Z,100.00
2023-02-17T02:55:47.935Z,100.00
2023-02-17T02:58:24.423Z,100.00
2023-02-17T03:01:05.161Z,100.00
2023-02-17T03:03:49.107Z,100.00
2023-02-17T03:06:29.566Z,100.00
2023-02-17T03:09:05.636Z,100.00
2023-02-17T03:11:33.412Z,100.00
2023-02-17T03:14:10.065Z,100.00
2023-02-17T03:16:39.032Z,100.00
2023-02-17T03:19:06.893Z,100.00
2023-02-17T03:21:39.256Z,100.00
2023-02-17T03:24:07.238Z,100.00
2023-02-17T03:26:34.867Z,100.00
2023-02-17T03:29:02.212Z,100.00
2023-02-17T03:31:31.001Z,100.00
2023-02-17T03:33:59.646Z,100.00
2023-02-17T03:36:27.478Z,100.00
2023-02-17T03:38:54.690Z,100.00
2023-02-17T03:41:22.520Z,100.00
2023-02-17T03:43:50.206Z,100.00
2023-02-17T03:46:18.634Z,100.00
2023-02-17T03:48:45.929Z,100.00
2023-02-17T03:51:15.660Z,100.00
2023-02-17T03:53:43.880Z,100.00
2023-02-17T03:56:12.358Z,100.00
2023-02-17T03:58:40.791Z,100.00
2023-02-17T04:01:10.561Z,100.00
2023-02-17T04:03:38.881Z,100.00
2023-02-17T04:06:07.487Z,100.00
2023-02-17T04:08:35.262Z,100.00
2023-02-17T04:11:04.325Z,100.00
2023-02-17T04:13:32.113Z,100.00
2023-02-17T04:16:01.535Z,100.00
2023-02-17T04:18:28.847Z,100.00
2023-02-17T04:20:56.432Z,100.00
2023-02-17T04:23:24.073Z,100.00
2023-02-17T04:25:51.667Z,100.00
2023-02-17T04:28:19.057Z,100.00
2023-02-17T04:30:48.436Z,100.00
2023-02-17T04:33:16.533Z,100.00
2023-02-17T04:35:44.107Z,100.00
2023-02-17T04:38:12.336Z,100.00
2023-02-17T04:40:39.915Z,100.00
2023-02-17T04:43:08.559Z,100.00
2023-02-17T04:45:37.578Z,100.00
2023-02-17T04:48:04.861Z,100.00
2023-02-17T04:50:32.483Z,100.00
2023-02-17T04:52:59.797Z,100.00
2023-02-17T04:55:27.461Z,100.00
2023-02-17T04:57:54.717Z,100.00
2023-02-17T05:00:22.451Z,100.00
2023-02-17T05:02:49.659Z,100.00
2023-02-17T05:05:18.955Z,100.00
2023-02-17T05:07:46.967Z,100.00
2023-02-17T05:10:15.627Z,100.00
2023-02-17T05:12:43.398Z,100.00
2023-02-17T05:15:12.315Z,100.00
2023-02-17T05:17:39.672Z,100.00
2023-02-17T05:20:08.157Z,100.00
2023-02-17T05:22:35.835Z,100.00
2023-02-17T05:25:03.702Z,100.00
2023-02-17T05:27:31.381Z,100.00
2023-02-17T05:29:58.991Z,100.00
2023-02-17T05:32:26.298Z,100.00
2023-02-17T05:34:54.033Z,100.00
2023-02-17T05:37:21.378Z,100.00
2023-02-17T05:39:48.928Z,100.00
2023-02-17T05:42:16.199Z,100.00
2023-02-17T05:44:43.843Z,100.00
2023-02-17T05:47:11.143Z,100.00
2023-02-17T05:49:38.660Z,100.00
2023-02-17T05:52:05.965Z,100.00
2023-02-17T05:54:33.504Z,100.00
2023-02-17T05:57:00.737Z,100.00
2023-02-17T05:59:28.488Z,100.00
2023-02-17T06:01:55.925Z,100.00
2023-02-17T06:04:23.576Z,100.00
2023-02-17T06:06:51.056Z,100.00
2023-02-17T06:09:18.642Z,100.00
2023-02-17T06:11:45.855Z,100.00
2023-02-17T06:14:13.373Z,100.00
2023-02-17T06:16:40.599Z,100.00
2023-02-17T06:19:08.141Z,100.00
2023-02-17T06:21:35.425Z,100.00
2023-02-17T06:24:03.089Z,100.00
2023-02-17T06:26:30.283Z,100.00
2023-02-17T06:28:57.846Z,100.00
2023-02-17T06:31:25.292Z,100.00
2023-02-17T06:33:53.310Z,100.00
2023-02-17T06:36:20.538Z,100.00
2023-02-17T06:38:48.083Z,100.00
2023-02-17T06:41:15.336Z,100.00
2023-02-17T06:43:42.891Z,100.00
2023-02-17T06:46:10.472Z,100.00
2023-02-17T06:48:38.093Z,100.00
2023-02-17T06:51:05.529Z,100.00
2023-02-17T06:53:33.106Z,100.00
2023-02-17T06:56:00.337Z,100.00
2023-02-17T06:58:27.952Z,100.00
2023-02-17T07:00:55.187Z,100.00
2023-02-17T07:03:22.745Z,100.00
2023-02-17T07:05:50.028Z,100.00
2023-02-17T07:08:17.681Z,100.00
2023-02-17T07:10:44.911Z,100.00
2023-02-17T07:13:12.416Z,100.00
2023-02-17T07:15:39.642Z,100.00
2023-02-17T07:18:07.443Z,100.00
2023-02-17T07:20:34.736Z,100.00
2023-02-17T07:23:02.368Z,100.00
2023-02-17T07:25:29.898Z,100.00
2023-02-17T07:27:57.479Z,100.00
2023-02-17T07:30:24.747Z,100.00
2023-02-17T07:32:52.278Z,100.00
2023-02-17T07:35:19.495Z,100.00
2023-02-17T07:37:47.081Z,100.00
2023-02-17T07:40:14.396Z,100.00
2023-02-17T07:42:41.961Z,100.00
2023-02-17T07:45:09.431Z,100.00
2023-02-17T07:47:37.076Z,100.00
2023-02-17T07:50:04.964Z,100.00
2023-02-17T07:52:32.534Z,100.00
2023-02-17T07:54:59.882Z,100.00
2023-02-17T07:57:27.656Z,100.00
2023-02-17T07:59:54.872Z,100.00
2023-02-17T08:02:22.780Z,100.00
2023-02-17T08:04:51.866Z,100.00
2023-02-17T08:07:19.476Z,100.00
2023-02-17T08:10:05.998Z,100.00
2023-02-17T08:13:09.073Z,100.00
2023-02-17T08:15:36.337Z,100.00
2023-02-17T08:18:05.086Z,100.00
2023-02-17T08:20:34.281Z,100.00
2023-02-17T08:23:03.754Z,100.00
2023-02-17T08:25:35.479Z,100.00
2023-02-17T08:28:05.732Z,100.00
2023-02-17T08:30:36.628Z,100.00
2023-02-17T08:33:05.654Z,100.00
2023-02-17T08:35:33.206Z,100.00
2023-02-17T08:38:00.740Z,100.00
2023-02-17T08:40:29.181Z,100.00
2023-02-17T08:42:56.764Z,100.00
2023-02-17T08:45:24.158Z,100.00
2023-02-17T08:47:51.768Z,100.00
2023-02-17T08:50:20.276Z,100.00
2023-02-17T08:52:47.893Z,100.00
2023-02-17T08:55:15.354Z,100.00
2023-02-17T08:57:42.956Z,100.00
2023-02-17T09:00:11.093Z,100.00
2023-02-17T09:02:38.756Z,100.00
2023-02-17T09:05:06.350Z,100.00
2023-02-17T09:07:33.905Z,100.00
2023-02-17T09:10:01.402Z,100.00
2023-02-17T09:12:29.072Z,100.00
2023-02-17T09:14:56.293Z,100.00
2023-02-17T09:17:24.352Z,100.00
2023-02-17T09:19:51.871Z,100.00
2023-02-17T09:22:31.715Z,100.00
2023-02-17T09:24:59.771Z,100.00
2023-02-17T09:27:27.309Z,100.00
2023-02-17T09:29:54.637Z,100.00
2023-02-17T09:32:22.560Z,100.00
2023-02-17T09:34:55.776Z,100.00
2023-02-17T09:37:24.799Z,100.00
2023-02-17T09:39:52.244Z,100.00
2023-02-17T09:42:23.219Z,100.00
2023-02-17T09:44:57.028Z,100.00
2023-02-17T09:47:32.364Z,100.00
2023-02-17T09:50:05.913Z,100.00
2023-02-17T09:52:36.582Z,100.00
2023-02-17T09:55:27.973Z,100.00
2023-02-17T09:58:04.274Z,100.00
2023-02-17T10:00:40.521Z,100.00
2023-02-17T10:03:13.228Z,100.00
2023-02-17T10:05:47.379Z,100.00
2023-02-17T10:08:23.416Z,100.00
2023-02-17T10:11:08.686Z,100.00
2023-02-17T10:13:37.789Z,100.00
2023-02-17T10:16:10.309Z,100.00
2023-02-17T10:18:47.663Z,100.00
2023-02-17T10:21:24.173Z,100.00
2023-02-17T10:23:51.979Z,100.00
2023-02-17T10:26:48.887Z,100.00
2023-02-17T10:30:07.044Z,100.00
2023-02-17T10:32:50.796Z,100.00
2023-02-17T10:35:27.540Z,100.00
2023-02-17T10:38:16.443Z,100.00
2023-02-17T10:40:47.535Z,100.00
2023-02-17T10:43:22.836Z,100.00
2023-02-17T10:45:51.453Z,100.00
2023-02-17T10:48:22.629Z,100.00
2023-02-17T10:50:50.890Z,100.00
2023-02-17T10:53:21.499Z,100.00
2023-02-17T10:56:07.526Z,100.00
2023-02-17T10:58:50.049Z,100.00
2023-02-17T11:01:18.002Z,100.00
2023-02-17T11:03:45.401Z,100.00
2023-02-17T11:06:23.492Z,100.00
2023-02-17T11:08:54.334Z,100.00
2023-02-17T11:11:30.664Z,100.00
2023-02-17T11:14:07.029Z,100.00
2023-02-17T11:16:41.726Z,100.00
2023-02-17T11:19:28.461Z,100.00
2023-02-17T11:21:58.824Z,100.00
2023-02-17T11:24:27.979Z,100.00
2023-02-17T11:27:05.418Z,100.00
2023-02-17T11:29:34.197Z,100.00
2023-02-17T11:32:09.122Z,100.00
2023-02-17T11:34:40.036Z,100.00
2023-02-17T11:37:13.292Z,100.00
2023-02-17T11:39:46.652Z,100.00
2023-02-17T11:42:24.697Z,100.00
2023-02-17T11:44:54.899Z,100.00
2023-02-17T11:47:51.625Z,100.00
2023-02-17T11:50:43.941Z,100.00
2023-02-17T11:53:27.179Z,100.00
2023-02-17T11:56:08.382Z,100.00
2023-02-17T11:58:42.095Z,100.00
2023-02-17T12:01:34.531Z,100.00
2023-02-17T12:04:21.538Z,100.00
2023-02-17T12:07:26.824Z,100.00
2023-02-17T12:10:15.531Z,100.00
2023-02-17T12:12:48.763Z,100.00
2023-02-17T12:15:34.673Z,100.00
2023-02-17T12:18:24.771Z,100.00
2023-02-17T12:21:10.883Z,100.00
2023-02-17T12:23:57.435Z,100.00
2023-02-17T12:26:36.923Z,100.00
2023-02-17T12:29:28.610Z,100.00
2023-02-17T12:32:19.098Z,100.00
2023-02-17T12:34:59.567Z,100.00
2023-02-17T12:37:33.631Z,100.00
2023-02-17T12:40:15.653Z,100.00
2023-02-17T12:42:53.804Z,100.00
2023-02-17T12:45:24.787Z,100.00
2023-02-17T12:47:55.645Z,100.00
2023-02-17T12:50:35.148Z,100.00
2023-02-17T12:53:08.767Z,100.00
2023-02-17T12:55:49.009Z,100.00
2023-02-17T12:58:20.274Z,100.00
2023-02-17T13:00:52.755Z,100.00
2023-02-17T13:03:20.642Z,100.00
2023-02-17T13:05:52.285Z,100.00
2023-02-17T13:08:38.992Z,100.00
2023-02-17T13:11:11.163Z,100.00
2023-02-17T13:13:39.182Z,100.00
2023-02-17T13:16:14.958Z,100.00
2023-02-17T13:18:50.388Z,100.00
2023-02-17T13:21:24.975Z,100.00
2023-02-17T13:24:12.960Z,100.00
2023-02-17T13:26:44.658Z,100.00
2023-02-17T13:29:24.313Z,100.00
2023-02-17T13:32:02.379Z,100.00
2023-02-17T13:34:39.469Z,100.00
2023-02-17T13:37:33.124Z,100.00
2023-02-17T13:40:03.205Z,100.00
2023-02-17T13:42:34.904Z,100.00
2023-02-17T13:45:10.750Z,100.00
2023-02-17T13:47:41.186Z,100.00
2023-02-17T13:50:37.097Z,100.00
2023-02-17T13:53:28.688Z,100.00
2023-02-17T13:56:00.483Z,100.00
2023-02-17T13:58:33.055Z,100.00
2023-02-17T14:01:02.434Z,100.00
2023-02-17T14:03:46.792Z,100.00
2023-02-17T14:06:23.633Z,100.00
2023-02-17T14:08:51.148Z,100.00
2023-02-17T14:11:21.554Z,100.00
2023-02-17T14:13:51.258Z,100.00
2023-02-17T14:16:33.111Z,100.00
2023-02-17T14:19:10.269Z,100.00
2023-02-17T14:21:40.430Z,100.00
2023-02-17T14:24:10.274Z,100.00
2023-02-17T14:26:42.429Z,100.00
2023-02-17T14:29:12.812Z,100.00
2023-02-17T14:31:44.078Z,100.00
2023-02-17T14:34:32.656Z,100.00
2023-02-17T14:37:23.223Z,100.00
2023-02-17T14:39:50.922Z,100.00
2023-02-17T14:42:18.601Z,100.00
2023-02-17T14:44:45.850Z,100.00
2023-02-17T14:47:13.395Z,100.00
2023-02-17T14:49:40.638Z,100.00
2023-02-17T14:52:20.552Z,100.00
2023-02-17T14:54:49.039Z,100.00
2023-02-17T14:57:17.744Z,100.00
2023-02-17T14:59:45.012Z,100.00
2023-02-17T15:02:18.040Z,100.00
2023-02-17T15:04:45.652Z,100.00
2023-02-17T15:07:16.300Z,100.00
2023-02-17T15:09:48.173Z,100.00
2023-02-17T15:12:21.185Z,100.00
2023-02-17T15:14:48.650Z,100.00
2023-02-17T15:17:16.577Z,100.00
2023-02-17T15:19:46.586Z,100.00
2023-02-17T15:22:14.503Z,100.00
2023-02-17T15:24:42.118Z,100.00
2023-02-17T15:27:15.178Z,100.00
2023-02-17T15:29:42.468Z,100.00
2023-02-17T15:32:20.982Z,100.00
2023-02-17T15:34:48.432Z,100.00
2023-02-17T15:37:15.979Z,100.00
2023-02-17T15:39:43.213Z,100.00
2023-02-17T15:42:13.838Z,100.00
2023-02-17T15:44:50.388Z,100.00
2023-02-17T15:47:20.707Z,100.00
2023-02-17T15:49:48.095Z,100.00
2023-02-17T15:52:16.122Z,100.00
2023-02-17T15:54:44.466Z,100.00
2023-02-17T15:57:24.033Z,100.00
2023-02-17T15:59:55.062Z,100.00
2023-02-17T16:02:25.211Z,100.00
2023-02-17T16:04:52.494Z,100.00
2023-02-17T16:07:19.999Z,100.00
2023-02-17T16:09:47.292Z,100.00
2023-02-17T16:12:19.024Z,100.00
2023-02-17T16:14:46.400Z,100.00
2023-02-17T16:17:16.710Z,100.00
2023-02-17T16:19:44.441Z,100.00
2023-02-17T16:22:12.266Z,100.00
2023-02-17T16:24:39.506Z,100.00
2023-02-17T16:27:09.627Z,100.00
2023-02-17T16:29:36.942Z,100.00
2023-02-17T16:32:04.740Z,100.00
2023-02-17T16:34:34.847Z,100.00
2023-02-17T16:37:10.057Z,100.00
2023-02-17T16:39:39.432Z,100.00
2023-02-17T16:42:07.072Z,100.00
2023-02-17T16:44:34.955Z,100.00
2023-02-17T16:47:02.872Z,100.00
2023-02-17T16:49:33.816Z,100.00
2023-02-17T16:52:07.761Z,100.00
2023-02-17T16:54:35.826Z,100.00
2023-02-17T16:57:03.864Z,100.00
2023-02-17T16:59:31.202Z,100.00
2023-02-17T17:01:58.932Z,100.00
2023-02-17T17:04:26.197Z,100.00
2023-02-17T17:06:53.754Z,100.00
2023-02-17T17:09:23.854Z,100.00
2023-02-17T17:11:51.401Z,100.00
2023-02-17T17:14:21.425Z,100.00
2023-02-17T17:16:57.479Z,100.00
2023-02-17T17:19:25.446Z,100.00
2023-02-17T17:21:52.983Z,100.00
2023-02-17T17:24:20.474Z,100.00
2023-02-17T17:26:50.284Z,100.00
2023-02-17T17:29:19.274Z,100.00
2023-02-17T17:31:47.560Z,100.00
2023-02-17T17:34:14.989Z,100.00
2023-02-17T17:36:45.290Z,100.00
2023-02-17T17:39:19.089Z,100.00
2023-02-17T17:41:47.446Z,100.00
2023-02-17T17:44:15.183Z,100.00
2023-02-17T17:46:43.386Z,100.00
2023-02-17T17:49:13.813Z,100.00
2023-02-17T17:51:41.867Z,100.00
2023-02-17T17:54:09.234Z,100.00
2023-02-17T17:56:39.973Z,100.00
2023-02-17T17:59:07.218Z,100.00
2023-02-17T18:01:35.140Z,100.00
2023-02-17T18:04:02.850Z,100.00
2023-02-17T18:06:37.474Z,100.00
2023-02-17T18:09:07.771Z,100.00
2023-02-17T18:11:37.053Z,100.00
2023-02-17T18:14:08.800Z,100.00
2023-02-17T18:16:38.637Z,100.00
2023-02-17T18:19:08.108Z,100.00
2023-02-17T18:21:36.090Z,100.00
2023-02-17T18:24:03.684Z,100.00
2023-02-17T18:26:31.648Z,100.00
2023-02-17T18:28:59.345Z,100.00
2023-02-17T18:31:29.492Z,100.00
2023-02-17T18:33:56.935Z,100.00
2023-02-17T18:36:27.186Z,100.00
2023-02-17T18:38:54.637Z,100.00
2023-02-17T18:41:27.878Z,100.00
2023-02-17T18:43:56.718Z,100.00
2023-02-17T18:46:26.766Z,100.00
2023-02-17T18:48:57.557Z,98.83
2023-02-17T18:51:27.635Z,99.51
2023-02-17T18:53:56.825Z,99.28
2023-02-17T18:56:27.787Z,98.36
2023-02-17T18:58:55.798Z,94.17
2023-02-17T19:01:27.174Z,93.45
2023-02-17T19:03:55.631Z,90.88
2023-02-17T19:06:26.665Z,91.07
2023-02-17T19:08:54.389Z,91.10
2023-02-17T19:11:23.290Z,91.75
2023-02-17T19:13:51.301Z,88.83
2023-02-17T19:16:25.040Z,90.04
2023-02-17T19:18:52.963Z,86.44
2023-02-17T19:21:21.527Z,83.27
2023-02-17T19:23:50.241Z,86.63
2023-02-17T19:26:18.685Z,81.08
2023-02-17T19:28:46.716Z,80.42
2023-02-17T19:31:18.047Z,81.77
2023-02-17T19:33:45.855Z,85.72
2023-02-17T19:36:19.303Z,79.15
2023-02-17T19:38:47.760Z,82.98
2023-02-17T19:41:16.906Z,81.70
2023-02-17T19:43:45.147Z,85.08
2023-02-17T19:46:14.515Z,86.73
2023-02-17T19:48:42.213Z,87.61
2023-02-17T19:51:13.800Z,83.72
2023-02-17T19:53:45.714Z,83.09
2023-02-17T19:56:19.125Z,83.34
2023-02-17T19:58:47.387Z,80.51
2023-02-17T20:01:18.193Z,80.71
2023-02-17T20:03:45.937Z,79.50
2023-02-17T20:06:32.252Z,78.66
2023-02-17T20:09:02.074Z,79.59
2023-02-17T20:11:31.981Z,78.04
2023-02-17T20:14:01.241Z,78.68
2023-02-17T20:16:29.766Z,77.12
2023-02-17T20:18:57.424Z,77.35
2023-02-17T20:21:28.243Z,76.36
2023-02-17T20:23:57.374Z,76.18
2023-02-17T20:26:28.318Z,76.56
2023-02-17T20:28:56.549Z,78.05
2023-02-17T20:31:24.595Z,77.14
2023-02-17T20:33:52.443Z,76.88
2023-02-17T20:36:22.248Z,76.80
2023-02-17T20:38:50.233Z,75.84
2023-02-17T20:41:21.218Z,76.60
2023-02-17T20:43:49.277Z,75.79
2023-02-17T20:46:26.260Z,76.07
2023-02-17T20:48:54.435Z,78.51
2023-02-17T20:51:22.455Z,76.94
2023-02-17T20:53:49.889Z,75.80
2023-02-17T20:56:20.634Z,76.66
2023-02-17T20:58:48.833Z,75.94
2023-02-17T21:01:16.604Z,76.93
2023-02-17T21:03:44.024Z,75.20
2023-02-17T21:06:20.607Z,76.14
2023-02-17T21:08:51.772Z,76.90
2023-02-17T21:11:19.540Z,75.65
2023-02-17T21:13:47.613Z,74.63
2023-02-17T21:16:18.037Z,74.35
2023-02-17T21:18:46.939Z,74.58
2023-02-17T21:21:15.575Z,75.94
2023-02-17T21:23:42.969Z,75.02
2023-02-17T21:26:12.886Z,74.42
2023-02-17T21:28:40.885Z,74.01
2023-02-17T21:31:08.732Z,74.27
2023-02-17T21:33:41.859Z,73.35
2023-02-17T21:36:11.334Z,74.63
2023-02-17T21:38:39.010Z,75.38
2023-02-17T21:41:18.840Z,76.45
2023-02-17T21:44:05.606Z,76.82
2023-02-17T21:46:34.334Z,77.89
2023-02-17T21:49:02.034Z,77.77
2023-02-17T21:51:30.839Z,76.66
2023-02-17T21:53:59.397Z,76.05
2023-02-17T21:56:27.292Z,78.11
2023-02-17T21:58:55.565Z,77.09
2023-02-17T22:01:25.111Z,78.91
2023-02-17T22:03:52.816Z,78.86
2023-02-17T22:06:38.817Z,78.28
2023-02-17T22:09:08.675Z,77.20
2023-02-17T22:11:38.880Z,76.71
2023-02-17T22:14:10.164Z,77.39
2023-02-17T22:16:38.353Z,78.32
2023-02-17T22:19:07.602Z,77.46
2023-02-17T22:21:35.270Z,76.96
2023-02-17T22:24:02.835Z,76.83
2023-02-17T22:26:30.800Z,77.07
2023-02-17T22:28:58.284Z,77.58
2023-02-17T22:31:28.615Z,79.59
2023-02-17T22:33:57.846Z,80.67
2023-02-17T22:36:27.500Z,81.08
2023-02-17T22:38:55.058Z,81.59
2023-02-17T22:41:24.785Z,81.41
2023-02-17T22:43:54.109Z,82.08
2023-02-17T22:46:25.005Z,83.26
2023-02-17T22:48:53.024Z,84.26
2023-02-17T22:51:24.109Z,85.30
2023-02-17T22:53:51.958Z,88.50
2023-02-17T22:56:19.725Z,91.39
2023-02-17T22:58:47.033Z,94.32
2023-02-17T23:01:20.737Z,94.19
2023-02-17T23:03:52.970Z,94.27
2023-02-17T23:06:27.640Z,94.49
2023-02-17T23:08:55.623Z,95.33
2023-02-17T23:11:44.895Z,97.82
2023-02-17T23:14:14.236Z,97.17
2023-02-17T23:16:42.237Z,97.81
2023-02-17T23:19:12.261Z,97.51
2023-02-17T23:21:46.112Z,97.39
2023-02-17T23:24:15.274Z,99.19
2023-02-17T23:26:43.054Z,100.00
2023-02-17T23:29:11.302Z,98.00
2023-02-17T23:31:39.257Z,97.70
2023-02-17T23:34:07.464Z,98.04
2023-02-17T23:36:35.047Z,99.40
2023-02-17T23:39:02.608Z,98.98
2023-02-17T23:41:30.325Z,96.58
2023-02-17T23:43:57.721Z,95.78
2023-02-17T23:46:25.423Z,96.01
2023-02-17T23:48:52.800Z,97.41
2023-02-17T23:51:20.303Z,100.00
2023-02-17T23:53:47.639Z,99.90
2023-02-17T23:56:23.462Z,99.69
2023-02-17T23:58:51.058Z,100.00
